Aviation Digital Data Service (ADDS)

Output produced by METARs form (0445 UTC 25 April 2017)
found at http://www.aviationweather.gov/adds/metars/
 
KJST 250354Z AUTO 10010G20KT 080V140 10SM BKN025 BKN045 09/02 A2998 RMK AO2 SLP156 T00890022
KJST 250333Z AUTO 10009KT 10SM BKN026 BKN045 09/03 A2999 RMK AO2 T00890028
KJST 250254Z AUTO 10012G20KT 10SM BKN070 09/04 A3000 RMK AO2 SLP161 60000 T00890039 58004
KJST 250154Z AUTO 10012G22KT 10SM FEW038 BKN055 OVC070 08/06 A3001 RMK AO2 PK WND 12026/0136 SLP168 T00830056
KJST 250054Z AUTO 11010G20KT 10SM SCT075 BKN090 OVC110 09/04 A3001 RMK AO2 RAE40 SLP167 P0000 T00940044
KJST 242354Z AUTO 10007KT 10SM -RA FEW065 OVC085 10/05 A3001 RMK AO2 RAE30B53 SLP167 P0000 60001 T01000050 10117 20100 58004
KJST 242254Z AUTO 10009G21KT 10SM -RA SCT070 OVC095 10/04 A3001 RMK AO2 SLP169 P0001 T01000044
KJST 242154Z AUTO 09008KT 10SM -RA OVC050 11/05 A3002 RMK AO2 RAB00 SLP170 P0000 T01060050
KJST 242054Z AUTO 09007KT 10SM OVC055 10/06 A3002 RMK AO2 RAE36 SLP174 P0000 60000 T01000056 58011
KJST 241954Z AUTO 09009G15KT 10SM -RA SCT060 OVC085 11/04 A3003 RMK AO2 RAB42 SLP177 P0000 T01060039
KJST 241854Z AUTO 10006G15KT 10SM BKN060 OVC080 12/01 A3005 RMK AO2 RAB1759E53 SLP182 P0000 T01170011
KJST 241754Z AUTO 08007KT 10SM OVC065 12/01 A3006 RMK AO2 SLP183 60000 T01170011 10122 20089 56002
KJST 241654Z AUTO 09011G17KT 10SM FEW055 OVC085 12/00 A3006 RMK AO2 SLP183 T01170000
KJST 241554Z AUTO 10010G18KT 10SM BKN080 OVC100 12/01 A3006 RMK AO2 SLP183 T01170006
KJST 241454Z AUTO 10009G21KT 10SM SCT120 12/04 A3006 RMK AO2 RAB1358E07 SLP183 P0000 60000 T01170039 50003
KJST 241354Z AUTO 12007G14KT 10SM FEW036 OVC095 10/05 A3008 RMK AO2 RAB25E51 SLP190 P0000 T01000050
KJST 241254Z AUTO 12005KT 10SM OVC110 09/04 A3006 RMK AO2 SLP184 T00890044
KJST 241154Z AUTO 13008G15KT 10SM FEW120 09/03 A3006 RMK AO2 SLP180 T00890033 10089 20061 51007
KJST 241054Z AUTO 10005KT 10SM CLR 08/04 A3005 RMK AO2 SLP176 T00830039
KJST 240954Z AUTO VRB03KT 10SM CLR 08/04 A3004 RMK AO2 SLP175 T00780039
KJST 240854Z AUTO 00000KT 10SM CLR 08/03 A3003 RMK AO2 SLP170 T00780028 56008
KJST 240754Z AUTO 09003KT 10SM CLR 07/03 A3003 RMK AO2 SLP170 T00720028
KJST 240654Z AUTO 12004KT 10SM CLR 07/03 A3004 RMK AO2 SLP173 T00720033
KJST 240554Z AUTO 13003KT 10SM CLR 07/03 A3006 RMK AO2 SLP180 T00720028 10128 20072 56005
KJST 240454Z AUTO 10005KT 10SM CLR 08/02 A3006 RMK AO2 SLP182 T00830022 401720017
KJST 240354Z AUTO 08004KT 10SM CLR 09/01 A3007 RMK AO2 SLP186 T00890011
KJST 240254Z AUTO 11004KT 10SM CLR 10/01 A3007 RMK AO2 SLP187 T01000006 51006
KJST 240154Z AUTO 12006KT 10SM CLR 10/M01 A3007 RMK AO2 SLP188 T01001006
KJST 240054Z AUTO 13004KT 10SM CLR 12/M01 A3006 RMK AO2 SLP187 T01171011
KJST 232354Z AUTO 00000KT 10SM CLR 13/00 A3005 RMK AO2 SLP185 T01280000 10172 20128 51006
KJST 232254Z AUTO 14007KT 10SM CLR 14/01 A3004 RMK AO2 SLP182 T01440006
KJST 232154Z AUTO 10006KT 10SM CLR 16/M02 A3004 RMK AO2 SLP181 T01561022
KJST 232054Z AUTO 15007KT 10SM CLR 16/M01 A3003 RMK AO2 SLP175 T01611011 56011
KJST 231954Z AUTO 14007KT 10SM CLR 17/M02 A3004 RMK AO2 SLP176 T01671022
KJST 231854Z AUTO 08006KT 10SM CLR 16/M02 A3005 RMK AO2 SLP181 T01611022
KJST 231754Z AUTO VRB04KT 10SM CLR 16/00 A3007 RMK AO2 SLP186 T01560000 10156 20050 58013
KJST 231654Z AUTO VRB06KT 10SM CLR 13/00 A3009 RMK AO2 SLP196 T01330000